Time;durP1;ratioP1;P1;durP2;ratioP2;P2;SDS_P1;SDS_P2;PMS_P1;PMS_P2;Temp;Humidity;BMP_temperature;BMP_pressure;BME280_temperature;BME280_humidity;BME280_pressure;Samples;Min_cycle;Max_cycle;Signal;HPM_P1;HPM_P2
2022/11/30 00:01:42;;;;;;;237.73;92.88;;;;;;;4.98;100.00;102029.22;10438814;28;20048;-92
2022/11/30 00:06:42;;;;;;;212.13;88.47;;;;;;;4.96;100.00;102020.38;10443117;28;20039;-89
2022/11/30 00:11:43;;;;;;;209.20;86.95;;;;;;;4.97;100.00;102024.78;10447360;28;20057;-91
2022/11/30 00:16:43;;;;;;;225.63;84.32;;;;;;;4.98;100.00;102017.94;10466172;28;20068;-92
2022/11/30 00:21:44;;;;;;;206.32;87.35;;;;;;;4.99;100.00;102024.94;10436898;28;20068;-92
2022/11/30 00:26:44;;;;;;;226.27;84.32;;;;;;;5.00;100.00;102022.47;10429168;28;20128;-92
2022/11/30 00:31:45;;;;;;;230.45;91.43;;;;;;;5.02;100.00;102019.09;10430362;28;20120;-92
2022/11/30 00:36:45;;;;;;;204.52;85.43;;;;;;;5.00;100.00;102014.69;10440447;28;20032;-93
2022/11/30 00:41:46;;;;;;;219.55;87.88;;;;;;;5.01;100.00;102018.22;10446791;28;20037;-93
2022/11/30 00:46:46;;;;;;;207.57;83.22;;;;;;;5.02;100.00;102017.44;10425715;28;20036;-95
2022/11/30 00:51:47;;;;;;;219.15;86.65;;;;;;;5.03;100.00;102027.03;10453763;28;20046;-95
2022/11/30 00:56:47;;;;;;;223.90;90.50;;;;;;;5.03;100.00;102018.34;10437241;28;20116;-94
2022/11/30 01:01:48;;;;;;;223.55;87.70;;;;;;;5.05;100.00;102027.16;10463335;28;20114;-93
2022/11/30 01:06:48;;;;;;;209.15;86.43;;;;;;;5.06;100.00;102028.97;10457527;28;20075;-88
2022/11/30 01:11:49;;;;;;;221.70;88.53;;;;;;;5.07;100.00;102033.41;10433919;28;20099;-94
2022/11/30 01:16:50;;;;;;;250.98;95.45;;;;;;;5.09;100.00;102040.56;10443047;28;20370;-94
2022/11/30 01:21:50;;;;;;;245.27;97.05;;;;;;;5.10;100.00;102034.59;10450648;28;20041;-93
2022/11/30 01:26:51;;;;;;;241.38;96.78;;;;;;;5.10;100.00;102039.78;10468171;28;20512;-92
2022/11/30 01:31:51;;;;;;;226.18;85.38;;;;;;;5.11;100.00;102046.78;10464763;28;20033;-93
2022/11/30 01:36:52;;;;;;;198.98;84.20;;;;;;;5.14;100.00;102041.88;10456449;28;20606;-93
2022/11/30 01:41:53;;;;;;;192.27;80.70;;;;;;;5.19;100.00;102044.88;10465110;28;20484;-92
2022/11/30 01:47:09;;;;;;;157.15;60.72;;;;;;;5.20;100.00;102046.69;10448899;28;20045;-90
2022/11/30 01:52:12;;;;;;;206.80;79.93;;;;;;;5.22;100.00;102049.44;10475096;28;20119;-91
2022/11/30 01:57:21;;;;;;;202.05;80.80;;;;;;;5.25;100.00;102052.28;10481135;28;20032;-90
2022/11/30 02:02:43;;;;;;;206.40;77.60;;;;;;;5.29;100.00;102049.19;10472737;28;20040;-91
2022/11/30 02:07:44;;;;;;;209.90;81.28;;;;;;;5.33;100.00;102056.47;10478663;28;20049;-91
2022/11/30 02:13:11;;;;;;;200.02;76.53;;;;;;;5.35;100.00;102062.72;10426744;28;20478;-91
2022/11/30 02:18:13;;;;;;;186.38;75.95;;;;;;;5.36;100.00;102056.75;10433550;28;20413;-91
2022/11/30 02:23:24;;;;;;;200.38;78.55;;;;;;;5.34;100.00;102057.38;10401762;28;20045;-91
2022/11/30 02:28:39;;;;;;;197.30;83.47;;;;;;;5.36;100.00;102064.53;10448974;28;20128;-91
2022/11/30 02:33:40;;;;;;;186.60;73.28;;;;;;;5.36;100.00;102056.75;10452941;28;20045;-92
2022/11/30 02:38:40;;;;;;;214.80;83.28;;;;;;;5.39;100.00;102061.28;10462987;28;20127;-91
2022/11/30 02:43:41;;;;;;;223.45;83.70;;;;;;;5.41;100.00;102059.72;10457773;28;20044;-88
2022/11/30 02:48:50;;;;;;;219.18;77.28;;;;;;;5.46;100.00;102066.25;10447671;28;20032;-90
2022/11/30 02:53:51;;;;;;;175.43;75.38;;;;;;;5.45;100.00;102054.03;10454655;28;20076;-90
2022/11/30 02:58:52;;;;;;;191.43;77.43;;;;;;;5.52;100.00;102061.59;10461401;28;20045;-89
2022/11/30 03:03:52;;;;;;;202.73;77.85;;;;;;;5.44;100.00;102063.53;10468911;28;20041;-87
2022/11/30 03:08:53;;;;;;;188.60;76.38;;;;;;;5.41;100.00;102058.06;10469778;28;20076;-91
2022/11/30 03:13:53;;;;;;;183.63;78.40;;;;;;;5.40;100.00;102060.50;10485805;28;20047;-89
2022/11/30 03:18:54;;;;;;;169.10;73.65;;;;;;;5.39;100.00;102057.03;10469388;28;20066;-90
2022/11/30 03:23:54;;;;;;;151.35;71.55;;;;;;;5.44;100.00;102062.59;10448683;28;20029;-89
2022/11/30 03:28:55;;;;;;;160.80;73.78;;;;;;;5.41;100.00;102063.25;10443040;28;20043;-89
2022/11/30 03:33:55;;;;;;;150.60;72.43;;;;;;;5.35;100.00;102069.56;10442486;28;20045;-89
2022/11/30 03:38:56;;;;;;;149.68;66.15;;;;;;;5.32;100.00;102070.25;10425515;28;20029;-89
2022/11/30 03:43:56;;;;;;;137.68;65.45;;;;;;;5.26;100.00;102069.69;10427043;28;20064;-92
2022/11/30 03:48:57;;;;;;;131.98;60.25;;;;;;;5.25;100.00;102073.97;10482520;28;20043;-91
2022/11/30 03:53:57;;;;;;;153.68;67.63;;;;;;;5.17;100.00;102072.38;10482557;28;20120;-89
2022/11/30 03:58:58;;;;;;;115.18;60.92;;;;;;;5.15;100.00;102071.31;10480146;28;20047;-89
2022/11/30 04:03:58;;;;;;;140.10;67.97;;;;;;;5.09;100.00;102070.78;10441669;28;20033;-90
2022/11/30 04:08:59;;;;;;;141.48;64.55;;;;;;;4.90;100.00;102069.13;10473091;28;20047;-88
2022/11/30 04:13:59;;;;;;;132.05;62.25;;;;;;;4.63;100.00;102071.03;10482647;28;20029;-90
2022/11/30 04:19:01;;;;;;;125.03;65.13;;;;;;;4.29;100.00;102074.84;10449821;28;20063;-89
2022/11/30 04:24:01;;;;;;;101.23;55.43;;;;;;;4.03;100.00;102078.50;10451640;28;20036;-89
2022/11/30 04:29:02;;;;;;;128.27;69.80;;;;;;;3.84;100.00;102066.41;10447244;28;20037;-91
2022/11/30 04:34:02;;;;;;;128.60;64.57;;;;;;;3.77;100.00;102077.88;10457341;28;20060;-91
2022/11/30 04:39:03;;;;;;;108.60;59.42;;;;;;;3.68;100.00;102087.34;10480273;28;20081;-90
2022/11/30 04:44:03;;;;;;;110.53;55.35;;;;;;;3.62;100.00;102084.19;10467004;28;20110;-90
2022/11/30 04:49:04;;;;;;;118.10;61.95;;;;;;;3.66;100.00;102087.22;10442582;28;20041;-90
2022/11/30 04:54:04;;;;;;;116.72;58.60;;;;;;;3.76;100.00;102096.75;10417655;28;20037;-88
2022/11/30 04:59:05;;;;;;;119.20;59.20;;;;;;;3.81;100.00;102099.81;10444732;28;20755;-89
2022/11/30 05:04:05;;;;;;;136.18;63.47;;;;;;;3.80;100.00;102097.97;10448831;28;20108;-90
2022/11/30 05:09:06;;;;;;;123.90;59.75;;;;;;;3.80;100.00;102100.56;10475596;28;20036;-90
2022/11/30 05:14:06;;;;;;;138.35;63.17;;;;;;;3.76;100.00;102095.88;10463134;28;20384;-90
2022/11/30 05:19:07;;;;;;;154.27;72.07;;;;;;;3.73;100.00;102098.16;10446250;28;20051;-88
2022/11/30 05:24:08;;;;;;;154.23;64.97;;;;;;;3.69;100.00;102106.41;10486204;28;20039;-90
2022/11/30 05:29:08;;;;;;;147.30;65.45;;;;;;;3.64;100.00;102118.91;10464119;28;20476;-87
2022/11/30 05:34:09;;;;;;;150.98;74.57;;;;;;;3.63;100.00;102110.22;10463217;28;20044;-88
2022/11/30 05:39:09;;;;;;;147.60;73.43;;;;;;;3.66;100.00;102110.53;10461045;28;20047;-89
2022/11/30 05:44:10;;;;;;;160.10;68.35;;;;;;;3.70;100.00;102111.72;10450230;28;20052;-88
2022/11/30 05:49:11;;;;;;;140.45;70.15;;;;;;;3.72;100.00;102114.47;10477586;28;20048;-86
2022/11/30 05:54:11;;;;;;;157.23;74.07;;;;;;;3.72;100.00;102119.66;10476664;28;20408;-89
2022/11/30 05:59:12;;;;;;;147.63;67.15;;;;;;;3.69;100.00;102122.84;10468444;28;20041;-86
2022/11/30 06:04:14;;;;;;;151.40;73.32;;;;;;;3.67;100.00;102127.88;10448112;28;20068;-92
2022/11/30 06:09:14;;;;;;;172.80;76.22;;;;;;;3.58;100.00;102132.19;10459853;28;20124;-87
2022/11/30 06:14:15;;;;;;;181.27;78.82;;;;;;;3.43;100.00;102134.19;10436215;28;20041;-91
2022/11/30 06:19:15;;;;;;;150.65;75.03;;;;;;;3.40;100.00;102133.00;10457249;28;20144;-82
2022/11/30 06:24:16;;;;;;;157.27;78.07;;;;;;;3.34;100.00;102130.72;10470126;28;20054;-90
2022/11/30 06:29:16;;;;;;;175.15;79.72;;;;;;;3.16;100.00;102132.44;10454550;28;20040;-92
2022/11/30 06:34:17;;;;;;;156.70;71.22;;;;;;;2.84;100.00;102132.75;10456980;28;20119;-94
2022/11/30 06:39:17;;;;;;;193.38;73.05;;;;;;;2.63;100.00;102132.44;10480573;28;20047;-93
2022/11/30 06:44:18;;;;;;;172.30;70.13;;;;;;;2.68;100.00;102128.66;10466560;28;20041;-91
2022/11/30 06:49:18;;;;;;;181.40;70.53;;;;;;;2.74;100.00;102130.91;10451882;28;20044;-90
2022/11/30 06:54:19;;;;;;;155.48;71.63;;;;;;;2.71;100.00;102139.28;10474453;28;20135;-91
2022/11/30 06:59:19;;;;;;;154.02;75.30;;;;;;;2.70;100.00;102139.13;10464002;28;20049;-91
2022/11/30 07:04:20;;;;;;;176.15;78.57;;;;;;;2.74;100.00;102149.00;10478139;28;20061;-91
2022/11/30 07:09:21;;;;;;;241.63;83.03;;;;;;;2.72;100.00;102153.13;10484212;28;20076;-89
2022/11/30 07:14:21;;;;;;;168.25;70.45;;;;;;;2.61;100.00;102152.06;10471990;28;20045;-82
2022/11/30 07:19:22;;;;;;;229.80;82.03;;;;;;;2.37;100.00;102160.81;10488859;28;20060;-91
2022/11/30 07:29:41;;;;;;;176.10;77.25;;;;;;;2.06;100.00;102161.19;10429798;28;20415;-91
2022/11/30 07:34:42;;;;;;;193.05;84.15;;;;;;;2.08;100.00;102171.66;10496765;28;20119;-92
2022/11/30 07:39:42;;;;;;;165.88;80.05;;;;;;;2.03;100.00;102177.28;10492800;28;20129;-93
2022/11/30 07:44:43;;;;;;;187.88;85.82;;;;;;;1.82;100.00;102175.06;10491481;28;20115;-91
2022/11/30 07:49:43;;;;;;;298.83;79.13;;;;;;;1.76;100.00;102186.56;10485269;28;20054;-92
2022/11/30 07:54:44;;;;;;;149.82;66.53;;;;;;;1.76;100.00;102196.00;10485703;28;20059;-87
2022/11/30 07:59:44;;;;;;;141.65;65.63;;;;;;;1.80;100.00;102202.38;10483859;28;20086;-92
2022/11/30 08:04:45;;;;;;;162.25;68.80;;;;;;;1.60;100.00;102196.03;10476880;28;20057;-91
2022/11/30 08:09:47;;;;;;;156.60;69.43;;;;;;;1.53;100.00;102207.41;10465862;28;20480;-89
2022/11/30 08:14:48;;;;;;;123.47;66.43;;;;;;;1.53;100.00;102214.22;10431205;28;20037;-90
2022/11/30 08:19:49;;;;;;;133.23;67.80;;;;;;;1.59;100.00;102223.53;10393336;28;20501;-89
2022/11/30 08:24:49;;;;;;;128.50;65.32;;;;;;;1.63;100.00;102235.06;10401798;28;20045;-89
2022/11/30 08:29:50;;;;;;;158.98;63.42;;;;;;;1.63;100.00;102231.59;10411490;28;20066;-84
2022/11/30 08:34:50;;;;;;;133.55;56.75;;;;;;;1.55;100.00;102235.94;10386976;28;20048;-82
2022/11/30 08:39:51;;;;;;;251.73;70.45;;;;;;;1.55;100.00;102243.69;10410131;28;20112;-86
2022/11/30 08:44:51;;;;;;;279.48;77.90;;;;;;;1.66;100.00;102250.88;10439174;28;20492;-84
2022/11/30 08:49:52;;;;;;;187.45;74.63;;;;;;;1.77;100.00;102249.47;10440923;28;20039;-86
2022/11/30 08:54:52;;;;;;;215.90;72.90;;;;;;;1.98;100.00;102258.53;10430914;28;20060;-86
2022/11/30 08:59:53;;;;;;;126.55;52.67;;;;;;;2.07;100.00;102250.84;10409638;28;20044;-86
2022/11/30 09:04:53;;;;;;;170.00;58.20;;;;;;;2.23;100.00;102250.75;10422554;28;20370;-87
2022/11/30 09:09:54;;;;;;;257.27;85.72;;;;;;;2.48;100.00;102246.44;10439801;28;20098;-84
2022/11/30 09:14:55;;;;;;;320.45;91.75;;;;;;;2.61;100.00;102250.28;10440016;28;20049;-83
2022/11/30 09:19:55;;;;;;;379.63;104.43;;;;;;;2.83;100.00;102253.38;10439278;28;20071;-85
2022/11/30 09:24:56;;;;;;;328.88;94.88;;;;;;;3.04;100.00;102253.69;10438876;28;20077;-87
2022/11/30 09:29:57;;;;;;;289.80;91.22;;;;;;;3.06;100.00;102257.34;10428794;28;20084;-83
2022/11/30 09:34:57;;;;;;;402.90;100.78;;;;;;;3.12;100.00;102260.56;10396135;28;20041;-87
2022/11/30 09:39:58;;;;;;;206.35;88.80;;;;;;;3.92;100.00;102258.81;10398736;28;20033;-88
2022/11/30 09:45:16;;;;;;;179.23;71.82;;;;;;;4.36;100.00;102267.34;10407192;28;20428;-88
2022/11/30 09:50:21;;;;;;;193.10;78.80;;;;;;;5.96;100.00;102258.53;10372955;28;20064;-88
2022/11/30 09:55:33;;;;;;;104.25;47.38;;;;;;;7.42;100.00;102262.19;10412520;28;20049;-88
2022/11/30 10:00:35;;;;;;;;;;;;;;;8.94;100.00;102267.31;10415181;28;20045;-88
2022/11/30 10:05:46;;;;;;;33.50;21.00;;;;;;;10.31;100.00;102239.75;10461625;28;19921;-88
2022/11/30 10:11:24;;;;;;;35.80;22.33;;;;;;;11.08;90.02;102184.81;10446058;28;20838;-89
2022/11/30 10:16:44;;;;;;;25.73;16.10;;;;;;;11.69;80.13;102167.75;10446430;28;20045;-89
2022/11/30 10:22:03;;;;;;;33.47;20.50;;;;;;;11.39;78.23;102170.22;10405142;28;20060;-89
2022/11/30 10:27:15;;;;;;;32.97;20.20;;;;;;;9.61;84.07;102172.03;10445449;28;20086;-89
2022/11/30 10:32:20;;;;;;;31.00;20.60;;;;;;;8.45;89.61;102165.22;10443800;28;20041;-89
2022/11/30 10:37:21;;;;;;;40.60;23.38;;;;;;;7.84;96.02;102166.56;10461971;28;20056;-88
2022/11/30 10:42:37;;;;;;;41.50;24.13;;;;;;;7.47;100.00;102162.81;10444115;28;20048;-90
2022/11/30 10:47:45;;;;;;;37.83;23.55;;;;;;;7.16;100.00;102152.50;10429630;28;20285;-88
2022/11/30 10:52:47;;;;;;;41.90;26.10;;;;;;;7.00;100.00;102160.72;10438169;28;20037;-91
2022/11/30 10:57:48;;;;;;;40.15;22.15;;;;;;;6.94;100.00;102160.22;10405011;28;20045;-87
2022/11/30 11:02:50;;;;;;;36.63;24.47;;;;;;;6.83;100.00;102161.00;10389261;28;20049;-91
2022/11/30 11:07:55;;;;;;;43.00;25.73;;;;;;;6.68;100.00;102153.72;10456613;28;20267;-89
2022/11/30 11:12:55;;;;;;;41.20;26.45;;;;;;;6.61;100.00;102154.00;10470422;28;20493;-85
2022/11/30 11:18:35;;;;;;;47.30;28.90;;;;;;;6.76;100.00;102154.41;10470039;28;20047;-91
2022/11/30 11:23:37;;;;;;;43.90;24.75;;;;;;;6.90;100.00;102156.47;10336221;28;20050;-86
2022/11/30 11:28:39;;;;;;;45.28;25.25;;;;;;;6.97;100.00;102157.88;10407028;28;20142;-85
2022/11/30 11:33:39;;;;;;;41.72;25.73;;;;;;;7.08;100.00;102163.97;10406221;28;20085;-87
2022/11/30 11:38:42;;;;;;;42.60;26.27;;;;;;;7.01;100.00;102161.66;10440646;28;20047;-85
2022/11/30 11:43:57;;;;;;;;;;;;;;;7.11;100.00;102160.69;10423912;28;20611;-87
2022/11/30 11:49:16;;;;;;;41.47;25.23;;;;;;;7.04;100.00;102167.09;10443639;28;19916;-89
2022/11/30 11:54:29;;;;;;;49.47;27.17;;;;;;;6.80;100.00;102161.69;10437934;28;20025;-90
2022/11/30 11:59:50;;;;;;;40.60;25.10;;;;;;;6.71;100.00;102156.59;10467127;28;20040;-88
2022/11/30 12:05:00;;;;;;;43.67;26.75;;;;;;;6.66;100.00;102147.50;10435128;28;20127;-91
2022/11/30 12:10:30;;;;;;;44.70;26.45;;;;;;;6.58;100.00;102161.53;10440803;28;20044;-89
2022/11/30 12:15:35;;;;;;;44.05;31.13;;;;;;;6.42;100.00;102165.44;10440701;28;20041;-90
2022/11/30 12:21:15;;;;;;;49.60;29.20;;;;;;;6.28;100.00;102161.69;10444285;28;20048;-93
2022/11/30 12:26:23;;;;;;;43.53;25.75;;;;;;;6.43;100.00;102162.06;10287024;28;20130;-93
2022/11/30 12:31:23;;;;;;;38.03;25.27;;;;;;;8.38;100.00;102162.91;10432976;28;20037;-86
2022/11/30 12:36:41;;;;;;;36.75;18.75;;;;;;;9.01;88.51;102153.78;10462523;28;20066;-83
2022/11/30 12:41:47;;;;;;;28.67;17.75;;;;;;;7.36;92.74;102163.63;10465210;28;20033;-82
2022/11/30 12:47:04;;;;;;;31.73;20.95;;;;;;;6.73;97.94;102168.03;10449791;28;20369;-84
2022/11/30 12:52:26;;;;;;;35.42;21.10;;;;;;;7.16;100.00;102169.78;10462535;28;20106;-85
2022/11/30 12:57:30;;;;;;;32.63;20.17;;;;;;;7.36;97.18;102174.06;10439980;28;20144;-86
2022/11/30 13:03:09;;;;;;;40.38;22.08;;;;;;;7.29;97.87;102177.81;10438918;28;20041;-84
2022/11/30 13:08:28;;;;;;;27.30;17.65;;;;;;;7.23;95.70;102177.31;10409169;28;20053;-85
2022/11/30 13:13:29;;;;;;;27.80;18.25;;;;;;;7.04;98.01;102170.59;10423999;28;20045;-86
2022/11/30 13:18:33;;;;;;;34.47;19.30;;;;;;;7.20;99.54;102172.78;10437442;28;20041;-85
2022/11/30 13:23:38;;;;;;;24.77;17.38;;;;;;;7.12;97.53;102171.25;10432048;28;20033;-86
2022/11/30 13:28:41;;;;;;;27.90;17.42;;;;;;;6.87;96.66;102174.41;10448221;28;20040;-86
2022/11/30 13:33:47;;;;;;;28.95;19.80;;;;;;;6.71;99.15;102173.91;10454395;28;20075;-90
2022/11/30 13:39:08;;;;;;;23.17;16.35;;;;;;;6.64;99.36;102177.66;10491099;28;20365;-90
2022/11/30 13:44:39;;;;;;;24.60;16.13;;;;;;;6.50;98.72;102170.38;10480676;28;20091;-89
2022/11/30 13:49:39;;;;;;;25.67;16.10;;;;;;;6.23;98.91;102177.66;10433046;28;20043;-89
2022/11/30 13:54:40;;;;;;;28.13;16.23;;;;;;;5.83;99.52;102178.56;10430230;28;20029;-89
2022/11/30 13:59:50;;;;;;;28.23;16.90;;;;;;;5.90;100.00;102187.81;10447209;28;20055;-89
2022/11/30 14:04:51;;;;;;;31.60;17.60;;;;;;;6.23;100.00;102183.78;10429739;28;20036;-88
2022/11/30 14:09:56;;;;;;;24.95;15.32;;;;;;;6.83;98.91;102190.56;10447550;28;20064;-89
2022/11/30 14:14:58;;;;;;;28.42;16.08;;;;;;;6.69;97.57;102189.38;10444561;28;20424;-89
2022/11/30 14:20:16;;;;;;;27.27;17.23;;;;;;;6.52;98.58;102190.56;10444903;28;20125;-88
2022/11/30 14:25:18;;;;;;;29.40;18.85;;;;;;;6.54;100.00;102195.88;10450706;28;20071;-88
2022/11/30 14:30:20;;;;;;;22.90;16.77;;;;;;;6.42;100.00;102207.06;10458287;28;20044;-88
2022/11/30 14:35:21;;;;;;;29.50;18.75;;;;;;;6.22;100.00;102207.94;10439381;28;20047;-88
2022/11/30 14:40:22;;;;;;;24.95;15.98;;;;;;;6.00;100.00;102208.69;10470592;28;20494;-87
2022/11/30 14:45:27;;;;;;;25.27;15.65;;;;;;;6.02;100.00;102209.72;10487824;28;20149;-87
2022/11/30 14:50:28;;;;;;;24.25;15.02;;;;;;;5.82;100.00;102197.53;10468738;28;20044;-88
2022/11/30 14:55:39;;;;;;;30.27;18.80;;;;;;;5.58;100.00;102202.38;10485139;28;20076;-88
2022/11/30 15:00:41;;;;;;;37.28;20.15;;;;;;;5.44;100.00;102205.41;10447250;28;20120;-88
2022/11/30 15:05:41;;;;;;;30.67;19.90;;;;;;;5.35;100.00;102196.78;10443781;28;20064;-87
2022/11/30 15:10:42;;;;;;;23.15;16.98;;;;;;;5.28;100.00;102213.53;10392382;28;20045;-88
2022/11/30 15:15:50;;;;;;;33.40;20.83;;;;;;;5.20;100.00;102210.22;10400716;28;20137;-87
2022/11/30 15:20:59;;;;;;;30.65;21.25;;;;;;;5.18;100.00;102210.84;10442132;28;20512;-88
2022/11/30 15:26:05;;;;;;;29.33;18.48;;;;;;;5.12;100.00;102218.97;10475729;28;20553;-88
2022/11/30 15:31:07;;;;;;;31.90;22.60;;;;;;;5.06;100.00;102221.94;10466983;28;20059;-87
2022/11/30 15:36:08;;;;;;;34.38;22.08;;;;;;;5.04;100.00;102222.56;10447384;28;20576;-89
2022/11/30 15:41:22;;;;;;;27.38;17.25;;;;;;;4.95;100.00;102222.63;10470212;28;20039;-87
2022/11/30 15:46:32;;;;;;;31.73;18.73;;;;;;;4.85;100.00;102223.47;10459824;28;20033;-87
2022/11/30 15:51:37;;;;;;;33.22;19.25;;;;;;;4.62;100.00;102230.00;10441368;28;20044;-86
2022/11/30 15:56:38;;;;;;;30.67;20.10;;;;;;;4.29;100.00;102228.66;10412745;28;20133;-85
2022/11/30 16:02:03;;;;;;;31.67;21.38;;;;;;;4.14;100.00;102234.97;10402756;28;20051;-86
2022/11/30 16:07:03;;;;;;;39.35;26.55;;;;;;;4.13;100.00;102240.91;10446934;28;20129;-86
2022/11/30 16:12:04;;;;;;;45.30;24.20;;;;;;;4.25;100.00;102242.09;10441173;28;20139;-85
2022/11/30 16:17:05;;;;;;;34.92;23.40;;;;;;;4.32;100.00;102247.09;10445634;28;20513;-84
2022/11/30 16:22:08;;;;;;;41.03;26.38;;;;;;;4.29;100.00;102257.16;10414151;28;20488;-83
2022/11/30 16:27:16;;;;;;;30.52;20.75;;;;;;;4.53;100.00;102256.00;10442035;28;20056;-87
2022/11/30 16:32:17;;;;;;;36.88;21.90;;;;;;;4.44;100.00;102259.38;10419803;28;20045;-86
2022/11/30 16:37:17;;;;;;;33.22;22.63;;;;;;;4.36;100.00;102261.28;10437365;28;20064;-87
2022/11/30 16:42:18;;;;;;;42.95;25.60;;;;;;;4.39;100.00;102270.25;10456133;28;20060;-86
2022/11/30 16:47:18;;;;;;;31.35;21.48;;;;;;;4.78;100.00;102272.94;10438394;28;20053;-87
2022/11/30 16:52:19;;;;;;;25.10;18.05;;;;;;;4.99;100.00;102263.66;10467561;28;20089;-86
2022/11/30 16:57:19;;;;;;;24.13;16.85;;;;;;;5.07;100.00;102265.28;10476136;28;20159;-86
2022/11/30 17:02:20;;;;;;;30.13;17.42;;;;;;;5.08;100.00;102269.72;10465445;28;20519;-86
2022/11/30 17:07:21;;;;;;;25.58;15.43;;;;;;;5.11;100.00;102263.88;10464692;28;20131;-85
2022/11/30 17:12:21;;;;;;;19.38;14.52;;;;;;;5.16;100.00;102266.91;10435290;28;20527;-86
2022/11/30 17:17:22;;;;;;;21.25;13.93;;;;;;;5.17;100.00;102268.72;10441195;28;20051;-84
2022/11/30 17:22:22;;;;;;;26.40;17.00;;;;;;;5.16;100.00;102272.09;10449765;28;20465;-84
2022/11/30 17:27:23;;;;;;;30.30;18.58;;;;;;;5.20;100.00;102275.09;10444476;28;20039;-86
2022/11/30 17:32:24;;;;;;;30.55;17.92;;;;;;;5.23;100.00;102277.09;10452402;28;20392;-86
2022/11/30 17:37:25;;;;;;;27.33;18.92;;;;;;;5.19;100.00;102287.97;10480022;28;20044;-85
2022/11/30 17:42:26;;;;;;;32.93;20.80;;;;;;;5.17;100.00;102285.19;10458339;28;20045;-85
2022/11/30 17:47:26;;;;;;;33.78;19.77;;;;;;;5.17;100.00;102289.50;10404725;28;20729;-86
2022/11/30 17:52:28;;;;;;;39.88;20.27;;;;;;;5.18;100.00;102292.22;10426613;28;20041;-83
2022/11/30 17:57:29;;;;;;;33.55;21.58;;;;;;;5.19;100.00;102299.25;10450078;28;20632;-85
2022/11/30 18:02:29;;;;;;;44.17;23.85;;;;;;;5.20;100.00;102301.06;10473568;28;20049;-84
2022/11/30 18:07:30;;;;;;;39.40;26.40;;;;;;;5.20;100.00;102310.56;10449084;28;20053;-83
2022/11/30 18:12:30;;;;;;;44.42;26.40;;;;;;;5.19;100.00;102317.41;10461552;28;20045;-83
2022/11/30 18:17:31;;;;;;;44.47;30.25;;;;;;;5.15;100.00;102320.50;10473031;28;20037;-82
2022/11/30 18:22:31;;;;;;;42.97;26.40;;;;;;;5.10;100.00;102325.28;10439830;28;20044;-82
2022/11/30 18:27:32;;;;;;;49.72;28.40;;;;;;;5.13;100.00;102324.63;10444449;28;20401;-82
2022/11/30 18:32:32;;;;;;;38.10;24.27;;;;;;;5.14;100.00;102323.84;10445129;28;20045;-82
2022/11/30 18:37:33;;;;;;;42.85;27.58;;;;;;;5.08;100.00;102324.22;10444743;28;20045;-82
2022/11/30 18:42:34;;;;;;;48.97;28.90;;;;;;;5.02;100.00;102330.50;10453424;28;20044;-82
2022/11/30 18:47:34;;;;;;;56.92;30.83;;;;;;;4.87;100.00;102338.66;10485694;28;20063;-82
2022/11/30 18:52:36;;;;;;;54.25;32.25;;;;;;;4.93;100.00;102343.53;10476792;28;20091;-82
2022/11/30 18:57:36;;;;;;;48.30;31.63;;;;;;;4.90;100.00;102333.75;10441630;28;20147;-85
2022/11/30 19:02:37;;;;;;;47.05;31.77;;;;;;;4.94;100.00;102337.56;10418883;28;20097;-80
2022/11/30 19:07:40;;;;;;;47.88;31.08;;;;;;;4.93;100.00;102344.44;10434591;28;20128;-82
2022/11/30 19:12:41;;;;;;;57.15;31.17;;;;;;;4.93;100.00;102341.84;10432815;28;20086;-85
2022/11/30 19:17:41;;;;;;;47.83;32.42;;;;;;;4.92;100.00;102341.72;10421735;28;20203;-83
2022/11/30 19:22:42;;;;;;;41.08;28.63;;;;;;;4.88;100.00;102343.09;10417132;28;20397;-85
2022/11/30 19:27:42;;;;;;;53.50;31.80;;;;;;;4.89;100.00;102354.38;10400701;28;20040;-83
2022/11/30 19:32:43;;;;;;;51.13;30.45;;;;;;;4.86;100.00;102349.81;10450049;28;20071;-79
2022/11/30 19:37:44;;;;;;;48.80;29.15;;;;;;;4.87;100.00;102354.22;10452681;28;20404;-82
2022/11/30 19:42:45;;;;;;;38.53;25.65;;;;;;;4.85;100.00;102345.38;10464586;28;20094;-87
2022/11/30 19:47:46;;;;;;;50.92;30.98;;;;;;;4.85;100.00;102356.69;10454186;28;20064;-88
2022/11/30 19:52:46;;;;;;;53.10;31.65;;;;;;;4.87;100.00;102353.34;10431154;28;20497;-95
2022/11/30 19:57:47;;;;;;;52.47;30.58;;;;;;;4.83;100.00;102357.31;10408778;28;20120;-91
2022/11/30 20:02:48;;;;;;;50.25;30.20;;;;;;;4.75;100.00;102366.03;10386447;28;20068;-88
2022/11/30 20:07:49;;;;;;;39.40;26.58;;;;;;;4.86;100.00;102367.97;10420233;28;20140;-84
2022/11/30 20:12:49;;;;;;;57.83;35.88;;;;;;;4.87;100.00;102366.31;10439181;28;20094;-89
2022/11/30 20:17:50;;;;;;;62.05;35.30;;;;;;;4.85;100.00;102376.53;10419898;28;20449;-84
2022/11/30 20:22:51;;;;;;;54.35;33.53;;;;;;;4.81;100.00;102371.81;10454817;28;20049;-90
2022/11/30 20:27:51;;;;;;;56.47;30.52;;;;;;;4.78;100.00;102372.44;10455345;28;20453;-90
2022/11/30 20:32:52;;;;;;;51.75;35.33;;;;;;;4.67;100.00;102376.59;10455786;28;20045;-88
2022/11/30 20:37:52;;;;;;;59.05;33.53;;;;;;;4.61;100.00;102377.69;10419205;28;20474;-85
2022/11/30 20:42:55;;;;;;;57.28;30.13;;;;;;;4.68;100.00;102382.72;10446862;28;20123;-85
2022/11/30 20:47:55;;;;;;;;;;;;;;;4.73;100.00;102383.13;10453720;28;20051;-86
2022/11/30 20:52:55;;;;;;;50.80;31.73;;;;;;;4.74;100.00;102387.56;10462484;28;19924;-86
2022/11/30 20:57:56;;;;;;;50.78;28.77;;;;;;;4.80;100.00;102382.94;10462115;28;20388;-82
2022/11/30 21:02:56;;;;;;;48.58;29.75;;;;;;;4.72;100.00;102387.44;10459290;28;20131;-83
2022/11/30 21:08:22;;;;;;;53.83;29.88;;;;;;;4.59;100.00;102387.91;10470931;28;20461;-85
2022/11/30 21:13:22;;;;;;;44.75;27.92;;;;;;;4.54;100.00;102392.66;10459269;28;20094;-87
2022/11/30 21:18:23;;;;;;;49.85;31.88;;;;;;;4.62;100.00;102395.09;10460754;28;20550;-85
2022/11/30 21:23:26;;;;;;;47.67;28.85;;;;;;;4.70;100.00;102389.84;10450729;28;20044;-86
2022/11/30 21:28:27;;;;;;;50.92;29.20;;;;;;;4.77;100.00;102385.25;10456179;28;20040;-86
2022/11/30 21:33:27;;;;;;;48.35;30.60;;;;;;;4.81;100.00;102388.31;10483381;28;20063;-85
2022/11/30 21:38:28;;;;;;;47.95;28.63;;;;;;;4.80;100.00;102389.06;10473394;28;20066;-85
2022/11/30 21:43:29;;;;;;;50.90;27.88;;;;;;;4.76;100.00;102391.22;10466442;28;20032;-86
2022/11/30 21:48:31;;;;;;;45.83;27.30;;;;;;;4.77;100.00;102390.44;10465923;28;20373;-87
2022/11/30 21:53:34;;;;;;;;;;;;;;;4.79;100.00;102391.50;10485600;28;20102;-86
2022/11/30 21:58:34;;;;;;;53.92;31.73;;;;;;;4.75;100.00;102390.31;10472726;28;19928;-86
2022/11/30 22:03:35;;;;;;;50.72;31.00;;;;;;;4.72;100.00;102396.88;10418265;28;20477;-87
2022/11/30 22:08:35;;;;;;;53.53;30.13;;;;;;;4.67;100.00;102399.94;10445835;28;20120;-86
2022/11/30 22:13:36;;;;;;;45.35;25.67;;;;;;;4.72;100.00;102391.69;10418411;28;20091;-86
2022/11/30 22:18:37;;;;;;;51.83;27.88;;;;;;;4.73;100.00;102386.66;10412255;28;20127;-86
2022/11/30 22:23:39;;;;;;;44.10;26.50;;;;;;;4.73;100.00;102397.03;10410861;28;20024;-86
2022/11/30 22:28:59;;;;;;;45.38;24.00;;;;;;;4.73;100.00;102388.31;10430099;28;20044;-87
2022/11/30 22:34:01;;;;;;;44.55;27.10;;;;;;;4.74;100.00;102395.34;10436944;28;20081;-85
2022/11/30 22:39:04;;;;;;;47.70;26.98;;;;;;;4.74;100.00;102390.16;10437344;28;20048;-86
2022/11/30 22:44:05;;;;;;;44.83;28.67;;;;;;;4.73;100.00;102393.50;10440261;28;20030;-86